createdAt,value
2018-08-30T00:00:05.352Z,99.21
2018-08-30T00:00:25.212Z,99.16
2018-08-30T00:00:45.564Z,99.12
2018-08-30T00:01:06.286Z,98.95
2018-08-30T00:01:26.141Z,98.93
2018-08-30T00:01:46.712Z,98.93
2018-08-30T00:02:06.912Z,98.91
2018-08-30T00:02:26.761Z,98.85
2018-08-30T00:02:47.122Z,98.81
2018-08-30T00:03:07.769Z,98.80
2018-08-30T00:03:27.623Z,98.81
2018-08-30T00:03:48.080Z,98.81
2018-08-30T00:04:08.440Z,98.63
2018-08-30T00:04:28.794Z,98.65
2018-08-30T00:04:49.513Z,98.60
2018-08-30T00:05:09.614Z,98.58
2018-08-30T00:05:29.471Z,98.55
2018-08-30T00:05:50.178Z,98.49
2018-08-30T00:06:10.044Z,98.38
2018-08-30T00:06:30.406Z,98.06
2018-08-30T00:06:51.043Z,98.23
2018-08-30T00:07:10.897Z,98.26
2018-08-30T00:07:31.240Z,98.26
2018-08-30T00:07:51.938Z,98.18
2018-08-30T00:08:11.787Z,98.06
2018-08-30T00:08:32.131Z,98.12
2018-08-30T00:08:52.783Z,98.02
2018-08-30T00:09:12.648Z,98.08
2018-08-30T00:09:33.138Z,98.12
2018-08-30T00:09:53.924Z,98.04
2018-08-30T00:10:14.009Z,97.99
2018-08-30T00:10:34.242Z,97.99
2018-08-30T00:10:54.283Z,97.96
2018-08-30T00:11:14.128Z,97.75
2018-08-30T00:11:34.824Z,97.74
2018-08-30T00:11:54.685Z,97.77
2018-08-30T00:12:15.043Z,97.78
2018-08-30T00:12:35.793Z,97.78
2018-08-30T00:12:55.645Z,97.44
2018-08-30T00:13:15.986Z,97.57
2018-08-30T00:13:36.639Z,97.60
2018-08-30T00:13:56.506Z,97.58
2018-08-30T00:14:16.861Z,97.60
2018-08-30T00:14:37.507Z,97.34
2018-08-30T00:14:57.383Z,97.21
2018-08-30T00:15:17.721Z,97.29
2018-08-30T00:15:38.364Z,96.78
2018-08-30T00:15:58.477Z,96.95
2018-08-30T00:16:18.624Z,97.00
2018-08-30T00:16:38.737Z,97.14
2018-08-30T00:16:58.860Z,97.15
2018-08-30T00:17:19.052Z,97.09
2018-08-30T00:17:39.411Z,97.07
2018-08-30T00:17:59.350Z,96.99
2018-08-30T00:18:20.058Z,96.83
2018-08-30T00:18:39.973Z,96.60
2018-08-30T00:19:00.310Z,96.77
2018-08-30T00:19:21.010Z,96.88
2018-08-30T00:19:40.873Z,96.79
2018-08-30T00:20:01.227Z,96.59
2018-08-30T00:20:21.919Z,96.69
2018-08-30T00:20:41.775Z,96.72
2018-08-30T00:21:02.157Z,96.57
2018-08-30T00:21:22.789Z,96.59
2018-08-30T00:21:42.654Z,96.54
2018-08-30T00:22:03.356Z,96.36
2018-08-30T00:22:23.502Z,96.48
2018-08-30T00:22:43.457Z,96.49
2018-08-30T00:23:04.143Z,96.49
2018-08-30T00:23:24.303Z,96.48
2018-08-30T00:23:44.187Z,96.33
2018-08-30T00:24:04.871Z,96.43
2018-08-30T00:24:24.736Z,96.38
2018-08-30T00:24:45.220Z,96.42
2018-08-30T00:25:05.908Z,96.35
2018-08-30T00:25:25.768Z,96.22
2018-08-30T00:25:46.137Z,96.27
2018-08-30T00:26:06.867Z,96.34
2018-08-30T00:26:26.769Z,96.31
2018-08-30T00:26:47.271Z,96.42
2018-08-30T00:27:07.933Z,96.20
2018-08-30T00:27:27.805Z,96.19
2018-08-30T00:27:48.301Z,96.18
2018-08-30T00:28:09.072Z,96.22
2018-08-30T00:28:29.078Z,96.12
2018-08-30T00:28:49.277Z,95.99
2018-08-30T00:29:09.133Z,95.73
2018-08-30T00:29:29.503Z,95.83
2018-08-30T00:29:50.266Z,95.86
2018-08-30T00:30:10.117Z,95.90
2018-08-30T00:30:30.479Z,95.89
2018-08-30T00:30:51.145Z,95.86
2018-08-30T00:31:11.011Z,95.79
2018-08-30T00:31:31.359Z,95.79
2018-08-30T00:31:52.096Z,95.73
2018-08-30T00:32:12.061Z,95.66
2018-08-30T00:32:32.587Z,95.63
2018-08-30T00:32:52.726Z,95.61
2018-08-30T00:33:12.573Z,95.59
2018-08-30T00:33:33.028Z,95.57
2018-08-30T00:33:53.653Z,95.58
2018-08-30T00:34:13.517Z,95.53
2018-08-30T00:34:34.229Z,95.51
2018-08-30T00:34:54.440Z,95.48
2018-08-30T00:35:14.603Z,95.49
2018-08-30T00:35:34.796Z,95.43
2018-08-30T00:35:54.684Z,95.48
2018-08-30T00:36:15.041Z,95.44
2018-08-30T00:36:35.795Z,95.39
2018-08-30T00:36:55.676Z,95.42
2018-08-30T00:37:16.033Z,95.38
2018-08-30T00:37:36.735Z,95.52
2018-08-30T00:37:56.632Z,95.40
2018-08-30T00:38:17.106Z,95.35
2018-08-30T00:38:37.745Z,95.32
2018-08-30T00:38:57.642Z,95.32
2018-08-30T00:39:18.073Z,95.39
2018-08-30T00:39:38.715Z,95.33
2018-08-30T00:39:58.634Z,95.30
2018-08-30T00:40:19.360Z,95.39
2018-08-30T00:40:39.297Z,95.53
2018-08-30T00:40:59.755Z,95.47
2018-08-30T00:41:20.529Z,95.48
2018-08-30T00:41:40.326Z,95.43
2018-08-30T00:42:00.681Z,95.40
2018-08-30T00:42:21.334Z,95.35
2018-08-30T00:42:41.202Z,95.36
2018-08-30T00:43:01.610Z,95.42
2018-08-30T00:43:22.244Z,95.39
2018-08-30T00:43:42.097Z,95.35
2018-08-30T00:44:02.695Z,95.34
2018-08-30T00:44:22.834Z,95.26
2018-08-30T00:44:42.697Z,95.29
2018-08-30T00:45:03.258Z,95.23
2018-08-30T00:45:23.408Z,95.24
2018-08-30T00:45:43.265Z,95.24
2018-08-30T00:46:03.964Z,95.20
2018-08-30T00:46:24.219Z,95.26
2018-08-30T00:46:44.188Z,95.26
2018-08-30T00:47:04.911Z,95.30
2018-08-30T00:47:24.881Z,95.27
2018-08-30T00:47:45.243Z,95.20
2018-08-30T00:48:05.963Z,95.25
2018-08-30T00:48:25.810Z,95.46
2018-08-30T00:48:46.401Z,95.32
2018-08-30T00:49:06.652Z,95.37
2018-08-30T00:49:26.504Z,95.30
2018-08-30T00:49:46.866Z,95.30
2018-08-30T00:50:07.539Z,95.27
2018-08-30T00:50:27.399Z,95.25
2018-08-30T00:50:47.764Z,95.26
2018-08-30T00:51:08.185Z,95.26
2018-08-30T00:51:28.543Z,95.24
2018-08-30T00:51:49.259Z,95.28
2018-08-30T00:52:09.332Z,95.27
2018-08-30T00:52:29.174Z,95.24
2018-08-30T00:52:49.887Z,95.24
2018-08-30T00:53:09.761Z,95.28
2018-08-30T00:53:30.120Z,95.24
2018-08-30T00:53:50.812Z,95.20
2018-08-30T00:54:10.667Z,95.18
2018-08-30T00:54:31.012Z,95.19
2018-08-30T00:54:51.685Z,95.14
2018-08-30T00:55:11.550Z,95.13
2018-08-30T00:55:31.913Z,95.12
2018-08-30T00:55:52.585Z,95.06
2018-08-30T00:56:12.454Z,95.09
2018-08-30T00:56:32.802Z,95.09
2018-08-30T00:56:53.443Z,95.05
2018-08-30T00:57:13.301Z,95.09
2018-08-30T00:57:33.987Z,95.09
2018-08-30T00:57:54.143Z,95.08
2018-08-30T00:58:13.992Z,95.05
2018-08-30T00:58:34.702Z,95.19
2018-08-30T00:58:54.595Z,95.16
2018-08-30T00:59:14.953Z,95.08
2018-08-30T00:59:35.671Z,95.25
2018-08-30T00:59:55.532Z,95.12
2018-08-30T01:00:16.136Z,94.99
2018-08-30T01:00:36.317Z,95.07
2018-08-30T01:00:56.163Z,95.08
2018-08-30T01:01:16.533Z,95.11
2018-08-30T01:01:37.212Z,95.11
2018-08-30T01:01:57.066Z,95.17
2018-08-30T01:02:17.486Z,95.09
2018-08-30T01:02:38.097Z,95.06
2018-08-30T01:02:57.946Z,95.06
2018-08-30T01:03:18.541Z,95.00
2018-08-30T01:03:38.656Z,95.14
2018-08-30T01:03:58.513Z,95.19
2018-08-30T01:04:19.331Z,95.22
2018-08-30T01:04:39.286Z,95.27
2018-08-30T01:04:59.631Z,95.19
2018-08-30T01:05:20.374Z,95.24
2018-08-30T01:05:40.306Z,95.32
2018-08-30T01:06:00.649Z,95.29
2018-08-30T01:06:21.384Z,95.29
2018-08-30T01:06:41.260Z,95.42
2018-08-30T01:07:01.713Z,95.60
2018-08-30T01:07:22.376Z,94.76
2018-08-30T01:07:42.237Z,95.18
2018-08-30T01:08:02.907Z,95.25
2018-08-30T01:08:23.053Z,95.09
2018-08-30T01:08:42.903Z,95.09
2018-08-30T01:09:03.631Z,94.90
2018-08-30T01:09:23.773Z,95.07
2018-08-30T01:09:43.738Z,95.25
2018-08-30T01:10:04.448Z,95.29
2018-08-30T01:10:24.561Z,95.28
2018-08-30T01:10:44.396Z,95.33
2018-08-30T01:11:05.101Z,95.32
2018-08-30T01:11:25.056Z,95.17
2018-08-30T01:11:45.421Z,95.04
2018-08-30T01:12:06.142Z,95.23
2018-08-30T01:12:46.013Z,95.16
2018-08-30T01:13:06.741Z,95.24
2018-08-30T01:13:26.637Z,95.23
2018-08-30T01:13:46.995Z,95.26
2018-08-30T01:14:07.664Z,94.86
2018-08-30T01:14:27.528Z,94.54
2018-08-30T01:14:47.875Z,94.78
2018-08-30T01:15:08.521Z,94.93
2018-08-30T01:15:28.378Z,94.97
2018-08-30T01:15:49.115Z,94.76
2018-08-30T01:16:09.261Z,94.33
2018-08-30T01:16:29.123Z,94.46
2018-08-30T01:16:49.842Z,94.65
2018-08-30T01:17:09.697Z,94.72
2018-08-30T01:17:30.038Z,94.57
2018-08-30T01:17:50.752Z,93.93
2018-08-30T01:18:10.695Z,94.24
2018-08-30T01:18:31.044Z,94.18
2018-08-30T01:18:51.766Z,93.73
2018-08-30T01:19:11.699Z,93.78
2018-08-30T01:19:32.060Z,93.95
2018-08-30T01:19:52.706Z,93.90
2018-08-30T01:20:12.566Z,93.71
2018-08-30T01:20:33.013Z,93.78
2018-08-30T01:20:53.667Z,93.71
2018-08-30T01:21:13.528Z,93.70
2018-08-30T01:21:34.226Z,93.63
2018-08-30T01:21:54.250Z,93.37
2018-08-30T01:22:14.100Z,93.50
2018-08-30T01:22:34.840Z,93.63
2018-08-30T01:22:54.685Z,92.78
2018-08-30T01:23:15.073Z,92.30
2018-08-30T01:23:35.772Z,92.67
2018-08-30T01:23:55.628Z,92.61
2018-08-30T01:24:15.979Z,92.74
2018-08-30T01:24:36.642Z,92.93
2018-08-30T01:24:56.501Z,92.97
2018-08-30T01:25:16.859Z,92.63
2018-08-30T01:25:37.503Z,92.56
2018-08-30T01:25:57.367Z,92.56
2018-08-30T01:26:17.754Z,91.88
2018-08-30T01:26:38.403Z,92.07
2018-08-30T01:26:58.255Z,91.42
2018-08-30T01:27:18.964Z,90.92
2018-08-30T01:27:39.067Z,91.59
2018-08-30T01:27:59.081Z,91.53
2018-08-30T01:28:19.293Z,91.13
2018-08-30T01:28:39.510Z,90.93
2018-08-30T01:28:59.493Z,90.52
2018-08-30T01:29:20.286Z,90.56
2018-08-30T01:29:40.147Z,90.66
2018-08-30T01:30:00.498Z,89.45
2018-08-30T01:30:21.201Z,90.07
2018-08-30T01:30:41.057Z,90.70
2018-08-30T01:31:01.414Z,90.83
2018-08-30T01:31:22.118Z,89.95
2018-08-30T01:31:42.064Z,89.76
2018-08-30T01:32:02.723Z,90.07
2018-08-30T01:32:22.869Z,89.20
2018-08-30T01:32:42.797Z,90.26
2018-08-30T01:33:06.115Z,89.96
2018-08-30T01:33:23.762Z,89.89
2018-08-30T01:33:43.665Z,90.25
2018-08-30T01:34:04.346Z,89.88
2018-08-30T01:34:24.274Z,90.26
2018-08-30T01:34:44.676Z,90.17
2018-08-30T01:35:05.416Z,90.38
2018-08-30T01:35:25.328Z,89.94
2018-08-30T01:35:45.682Z,90.08
2018-08-30T01:36:06.339Z,90.18
2018-08-30T01:36:26.183Z,89.88
2018-08-30T01:36:46.551Z,89.66
2018-08-30T01:37:07.218Z,90.26
2018-08-30T01:37:27.241Z,90.26
2018-08-30T01:37:47.096Z,89.47
2018-08-30T01:38:07.742Z,89.47
2018-08-30T01:38:27.590Z,90.01
2018-08-30T01:38:48.020Z,89.90
2018-08-30T01:39:08.679Z,90.08
2018-08-30T01:39:28.537Z,89.74
2018-08-30T01:39:49.231Z,89.95
2018-08-30T01:40:09.243Z,89.62
2018-08-30T01:40:29.113Z,89.63
2018-08-30T01:40:49.799Z,89.04
2018-08-30T01:41:09.676Z,89.33
2018-08-30T01:41:30.026Z,89.39
2018-08-30T01:41:50.773Z,89.37
2018-08-30T01:42:10.715Z,89.63
2018-08-30T01:42:31.074Z,88.50
2018-08-30T01:42:51.752Z,88.39
2018-08-30T01:43:11.607Z,89.10
2018-08-30T01:43:31.974Z,89.21
2018-08-30T01:43:52.612Z,89.25
2018-08-30T01:44:12.464Z,88.82
2018-08-30T01:44:32.838Z,88.78
2018-08-30T01:44:53.480Z,89.03
2018-08-30T01:45:13.412Z,89.26
2018-08-30T01:45:34.131Z,89.23
2018-08-30T01:45:54.131Z,89.13
2018-08-30T01:46:13.999Z,89.26
2018-08-30T01:46:34.723Z,88.99
2018-08-30T01:46:54.882Z,89.17
2018-08-30T01:47:14.738Z,89.30
2018-08-30T01:47:35.446Z,89.42
2018-08-30T01:47:55.301Z,88.94
2018-08-30T01:48:15.691Z,89.05
2018-08-30T01:48:36.373Z,88.58
2018-08-30T01:48:56.274Z,87.94
2018-08-30T01:49:16.632Z,87.59
2018-08-30T01:49:37.320Z,87.66
2018-08-30T01:49:57.166Z,88.08
2018-08-30T01:50:17.780Z,88.34
2018-08-30T01:50:37.933Z,88.33
2018-08-30T01:50:57.779Z,88.43
2018-08-30T01:51:18.352Z,88.44
2018-08-30T01:51:38.494Z,87.39
2018-08-30T01:51:58.353Z,87.74
2018-08-30T01:52:19.038Z,87.91
2018-08-30T01:52:39.107Z,88.20
2018-08-30T01:52:58.955Z,87.70
2018-08-30T01:53:19.675Z,87.87
2018-08-30T01:53:39.637Z,88.00
2018-08-30T01:53:59.989Z,87.31
2018-08-30T01:54:20.691Z,87.54
2018-08-30T01:54:40.540Z,87.30
2018-08-30T01:55:00.908Z,86.65
2018-08-30T01:55:21.568Z,87.23
2018-08-30T01:55:41.431Z,86.68
2018-08-30T01:56:02.105Z,86.98
2018-08-30T01:56:22.289Z,87.00
2018-08-30T01:56:42.186Z,86.55
2018-08-30T01:57:02.866Z,86.36
2018-08-30T01:57:23.006Z,86.47
2018-08-30T01:57:42.854Z,86.58
2018-08-30T01:58:03.563Z,86.90
2018-08-30T01:58:23.718Z,86.58
2018-08-30T01:58:43.568Z,86.58
2018-08-30T01:59:04.253Z,86.36
2018-08-30T01:59:24.370Z,86.87
2018-08-30T01:59:44.326Z,86.65
2018-08-30T02:00:05.074Z,86.42
2018-08-30T02:00:24.927Z,86.45
2018-08-30T02:00:45.294Z,86.47
2018-08-30T02:01:06.056Z,86.54
2018-08-30T02:01:25.924Z,86.60
2018-08-30T02:01:46.267Z,86.70
2018-08-30T02:02:06.957Z,86.41
2018-08-30T02:02:26.817Z,86.65
2018-08-30T02:02:47.180Z,86.45
2018-08-30T02:03:07.814Z,86.75
2018-08-30T02:03:27.684Z,86.22
2018-08-30T02:03:48.120Z,86.52
2018-08-30T02:04:08.478Z,86.46
2018-08-30T02:04:28.829Z,86.73
2018-08-30T02:04:49.547Z,86.47
2018-08-30T02:05:09.406Z,86.62
2018-08-30T02:05:29.758Z,86.36
2018-08-30T02:05:50.469Z,86.30
2018-08-30T02:06:10.321Z,85.98
2018-08-30T02:06:30.673Z,85.52
2018-08-30T02:06:51.326Z,85.39
2018-08-30T02:07:11.466Z,85.98
2018-08-30T02:07:31.319Z,86.10
2018-08-30T02:07:51.994Z,86.03
2018-08-30T02:08:11.890Z,86.15
2018-08-30T02:08:32.268Z,86.29
2018-08-30T02:08:52.912Z,85.34
2018-08-30T02:09:12.886Z,85.86
2018-08-30T02:09:33.491Z,85.56
2018-08-30T02:09:53.615Z,85.67
2018-08-30T02:10:13.546Z,85.86
2018-08-30T02:10:34.246Z,85.99
2018-08-30T02:10:54.235Z,85.91
2018-08-30T02:11:14.585Z,85.67
2018-08-30T02:11:35.327Z,85.59
2018-08-30T02:11:55.181Z,85.63
2018-08-30T02:12:15.536Z,85.77
2018-08-30T02:12:36.266Z,85.72
2018-08-30T02:12:56.131Z,85.41
2018-08-30T02:13:16.498Z,85.56
2018-08-30T02:13:37.204Z,85.80
2018-08-30T02:13:57.059Z,85.70
2018-08-30T02:14:17.406Z,85.59
2018-08-30T02:14:38.044Z,85.61
2018-08-30T02:14:57.898Z,85.47
2018-08-30T02:15:18.571Z,85.56
2018-08-30T02:15:38.718Z,85.49
2018-08-30T02:15:58.564Z,85.45
2018-08-30T02:16:19.274Z,85.68
2018-08-30T02:16:39.471Z,85.83
2018-08-30T02:16:59.390Z,85.26
2018-08-30T02:17:20.141Z,85.58
2018-08-30T02:17:40.077Z,85.48
2018-08-30T02:18:00.421Z,85.54
2018-08-30T02:18:21.121Z,85.61
2018-08-30T02:18:40.994Z,85.64
2018-08-30T02:19:01.437Z,85.60
2018-08-30T02:19:22.038Z,85.39
2018-08-30T02:19:41.889Z,85.51
2018-08-30T02:20:02.566Z,85.59
2018-08-30T02:20:22.708Z,85.58
2018-08-30T02:20:42.713Z,85.60
2018-08-30T02:21:02.881Z,85.70
2018-08-30T02:21:23.021Z,85.39
2018-08-30T02:21:43.073Z,85.46
2018-08-30T02:22:03.254Z,85.63
2018-08-30T02:22:23.398Z,85.62
2018-08-30T02:22:43.269Z,85.64
2018-08-30T02:23:04.046Z,85.62
2018-08-30T02:23:24.086Z,85.63
2018-08-30T02:23:44.027Z,85.67
2018-08-30T02:24:04.716Z,85.67
2018-08-30T02:24:24.637Z,85.81
2018-08-30T02:24:44.993Z,85.77
2018-08-30T02:25:05.706Z,85.76
2018-08-30T02:25:25.560Z,85.80
2018-08-30T02:25:45.916Z,85.89
2018-08-30T02:26:06.624Z,85.86
2018-08-30T02:26:26.623Z,85.83
2018-08-30T02:26:46.471Z,85.81
2018-08-30T02:27:07.171Z,85.91
2018-08-30T02:27:27.018Z,85.95
2018-08-30T02:27:47.367Z,85.89
2018-08-30T02:28:08.012Z,85.89
2018-08-30T02:28:27.957Z,85.82
2018-08-30T02:28:48.595Z,85.92
2018-08-30T02:29:08.680Z,86.16
2018-08-30T02:29:28.529Z,86.13
2018-08-30T02:29:49.234Z,85.77
2018-08-30T02:30:09.087Z,85.82
2018-08-30T02:30:29.447Z,85.76
2018-08-30T02:30:50.176Z,85.70
2018-08-30T02:31:10.027Z,85.41
2018-08-30T02:31:30.374Z,85.56
2018-08-30T02:31:51.052Z,85.64
2018-08-30T02:32:10.908Z,85.69
2018-08-30T02:32:31.242Z,85.39
2018-08-30T02:32:51.914Z,85.35
2018-08-30T02:33:11.938Z,85.68
2018-08-30T02:33:31.820Z,85.66
2018-08-30T02:33:52.468Z,85.61
2018-08-30T02:34:12.305Z,85.55
2018-08-30T02:34:32.663Z,85.48
2018-08-30T02:34:53.009Z,85.34
2018-08-30T02:35:13.622Z,85.49
2018-08-30T02:35:33.817Z,85.56
2018-08-30T02:35:53.961Z,85.53
2018-08-30T02:36:13.991Z,85.50
2018-08-30T02:36:34.182Z,85.50
2018-08-30T02:36:54.330Z,85.45
2018-08-30T02:37:14.182Z,85.55
2018-08-30T02:37:34.891Z,85.42
2018-08-30T02:37:54.986Z,85.53
2018-08-30T02:38:14.832Z,85.46
2018-08-30T02:38:35.587Z,85.25
2018-08-30T02:38:55.445Z,85.33
2018-08-30T02:39:15.795Z,85.36
2018-08-30T02:39:36.550Z,85.37
2018-08-30T02:39:56.401Z,85.29
2018-08-30T02:40:17.071Z,85.09
2018-08-30T02:40:37.215Z,85.11
2018-08-30T02:40:57.095Z,85.23
2018-08-30T02:41:17.445Z,85.31
2018-08-30T02:41:38.089Z,85.12
2018-08-30T02:41:57.940Z,85.23
2018-08-30T02:42:18.588Z,85.19
2018-08-30T02:42:38.872Z,85.19
2018-08-30T02:42:58.730Z,85.31
2018-08-30T02:43:19.447Z,85.25
2018-08-30T02:43:39.462Z,85.30
2018-08-30T02:43:59.318Z,85.32
2018-08-30T02:44:20.066Z,85.21
2018-08-30T02:44:39.909Z,85.32
2018-08-30T02:45:00.350Z,85.38
2018-08-30T02:45:21.074Z,85.22
2018-08-30T02:45:40.938Z,85.17
2018-08-30T02:46:01.301Z,85.14
2018-08-30T02:46:21.916Z,85.00
2018-08-30T02:46:41.765Z,85.08
2018-08-30T02:47:02.315Z,85.11
2018-08-30T02:47:22.473Z,85.04
2018-08-30T02:47:42.369Z,84.96
2018-08-30T02:48:02.723Z,85.04
2018-08-30T02:48:23.369Z,85.07
2018-08-30T02:48:43.253Z,85.08
2018-08-30T02:49:03.991Z,85.06
2018-08-30T02:49:24.219Z,85.08
2018-08-30T02:49:44.026Z,85.15
2018-08-30T02:50:04.701Z,85.08
2018-08-30T02:50:24.549Z,85.12
2018-08-30T02:50:45.121Z,85.12
2018-08-30T02:51:05.323Z,85.25
2018-08-30T02:51:25.182Z,85.20
2018-08-30T02:51:45.517Z,85.16
2018-08-30T02:52:25.887Z,85.14
2018-08-30T02:52:46.237Z,85.26
2018-08-30T02:53:06.931Z,85.30
2018-08-30T02:53:26.783Z,85.33
2018-08-30T02:53:47.152Z,85.33
2018-08-30T02:54:07.749Z,85.27
2018-08-30T02:54:27.614Z,84.93
2018-08-30T02:54:48.021Z,85.17
2018-08-30T02:55:08.711Z,85.00
2018-08-30T02:55:28.591Z,85.06
2018-08-30T02:55:49.307Z,85.07
2018-08-30T02:56:09.632Z,85.03
2018-08-30T02:56:29.484Z,84.89
2018-08-30T02:56:50.182Z,84.97
2018-08-30T02:57:10.036Z,84.88
2018-08-30T02:57:30.378Z,84.83
2018-08-30T02:57:51.122Z,84.75
2018-08-30T02:58:11.094Z,84.84
2018-08-30T02:58:31.442Z,84.80
2018-08-30T02:58:52.094Z,84.74
2018-08-30T02:59:11.942Z,84.48
2018-08-30T02:59:32.299Z,84.64
2018-08-30T02:59:52.939Z,84.65
2018-08-30T03:00:32.813Z,84.58
2018-08-30T03:00:53.470Z,84.61
2018-08-30T03:01:13.320Z,84.61
2018-08-30T03:01:33.979Z,84.60
2018-08-30T03:01:54.017Z,84.46
2018-08-30T03:02:13.874Z,84.46
2018-08-30T03:02:34.614Z,84.51
2018-08-30T03:02:54.469Z,84.48
2018-08-30T03:03:14.832Z,84.47
2018-08-30T03:03:35.572Z,84.47
2018-08-30T03:03:55.440Z,84.45
2018-08-30T03:04:15.786Z,84.44
2018-08-30T03:04:36.490Z,84.53
2018-08-30T03:04:56.346Z,84.55
2018-08-30T03:05:16.762Z,84.53
2018-08-30T03:05:37.454Z,84.51
2018-08-30T03:05:57.319Z,84.56
2018-08-30T03:06:17.679Z,84.53
2018-08-30T03:06:38.329Z,84.66
2018-08-30T03:06:58.305Z,84.65
2018-08-30T03:07:19.020Z,84.69
2018-08-30T03:07:39.249Z,84.74
2018-08-30T03:07:59.108Z,84.88
2018-08-30T03:08:19.810Z,84.80
2018-08-30T03:08:39.815Z,84.77
2018-08-30T03:08:59.926Z,84.77
2018-08-30T03:09:20.116Z,84.82
2018-08-30T03:09:39.967Z,84.77
2018-08-30T03:10:00.333Z,85.02
2018-08-30T03:10:21.000Z,84.76
2018-08-30T03:10:40.866Z,84.73
2018-08-30T03:11:01.313Z,84.77
2018-08-30T03:11:21.935Z,84.81
2018-08-30T03:11:41.794Z,84.75
2018-08-30T03:12:02.365Z,84.74
2018-08-30T03:12:42.239Z,84.83
2018-08-30T03:13:02.602Z,84.74
2018-08-30T03:13:23.265Z,84.67
2018-08-30T03:13:43.205Z,84.41
2018-08-30T03:14:03.944Z,84.74
2018-08-30T03:14:24.074Z,84.57
2018-08-30T03:14:43.949Z,84.51
2018-08-30T03:15:04.699Z,84.53
2018-08-30T03:15:24.876Z,84.45
2018-08-30T03:15:44.739Z,84.61
2018-08-30T03:16:05.457Z,84.33
2018-08-30T03:16:25.539Z,84.75
2018-08-30T03:16:45.459Z,84.31
2018-08-30T03:17:06.180Z,84.27
2018-08-30T03:17:26.026Z,84.51
2018-08-30T03:17:46.461Z,84.38
2018-08-30T03:18:07.138Z,84.53
2018-08-30T03:18:27.126Z,84.38
2018-08-30T03:18:47.497Z,84.38
2018-08-30T03:19:08.151Z,84.29
2018-08-30T03:19:28.000Z,84.40
2018-08-30T03:19:48.646Z,84.46
2018-08-30T03:20:08.778Z,84.46
2018-08-30T03:20:28.630Z,84.65
2018-08-30T03:20:49.370Z,84.58
2018-08-30T03:21:09.225Z,84.57
2018-08-30T03:21:29.595Z,84.44
2018-08-30T03:21:50.315Z,84.52
2018-08-30T03:22:10.176Z,84.49
2018-08-30T03:22:30.537Z,84.49
2018-08-30T03:22:51.188Z,84.54
2018-08-30T03:23:11.055Z,84.55
2018-08-30T03:23:31.410Z,84.63
2018-08-30T03:23:52.045Z,84.50
2018-08-30T03:24:11.909Z,84.50
2018-08-30T03:24:32.264Z,84.45
2018-08-30T03:24:52.909Z,84.43
2018-08-30T03:25:13.009Z,84.64
2018-08-30T03:25:32.881Z,84.67
2018-08-30T03:25:53.520Z,84.54
2018-08-30T03:26:13.369Z,84.54
2018-08-30T03:26:34.062Z,84.48
2018-08-30T03:26:54.368Z,84.51
2018-08-30T03:27:14.222Z,84.50
2018-08-30T03:27:34.935Z,84.62
2018-08-30T03:27:54.782Z,84.74
2018-08-30T03:28:15.178Z,84.64
2018-08-30T03:28:35.908Z,84.67
2018-08-30T03:28:55.773Z,84.74
2018-08-30T03:29:16.133Z,84.83
2018-08-30T03:29:36.765Z,84.80
2018-08-30T03:29:56.615Z,84.92
2018-08-30T03:30:17.316Z,84.78
2018-08-30T03:30:37.460Z,84.75
2018-08-30T03:30:57.306Z,84.79
2018-08-30T03:31:17.639Z,84.74
2018-08-30T03:31:38.280Z,84.69
2018-08-30T03:31:58.136Z,84.66
2018-08-30T03:32:18.811Z,84.70
2018-08-30T03:32:38.930Z,84.76
2018-08-30T03:32:58.799Z,84.81
2018-08-30T03:33:19.549Z,84.93
2018-08-30T03:33:39.516Z,84.86
2018-08-30T03:33:59.881Z,84.86
2018-08-30T03:34:20.673Z,84.78
2018-08-30T03:34:40.521Z,84.86
2018-08-30T03:35:00.969Z,84.76
2018-08-30T03:35:21.646Z,84.76
2018-08-30T03:35:41.533Z,84.71
2018-08-30T03:36:02.036Z,84.80
2018-08-30T03:36:22.675Z,84.76
2018-08-30T03:36:42.528Z,84.89
2018-08-30T03:37:03.131Z,84.82
2018-08-30T03:37:23.281Z,84.89
2018-08-30T03:37:43.140Z,84.77
2018-08-30T03:38:03.881Z,84.80
2018-08-30T03:38:24.164Z,84.94
2018-08-30T03:38:44.012Z,84.92
2018-08-30T03:39:04.767Z,84.81
2018-08-30T03:39:24.703Z,84.94
2018-08-30T03:39:45.039Z,84.85
2018-08-30T03:40:05.752Z,84.81
2018-08-30T03:40:25.608Z,84.77
2018-08-30T03:40:45.970Z,84.81
2018-08-30T03:41:06.607Z,84.74
2018-08-30T03:41:26.457Z,84.67
2018-08-30T03:41:46.802Z,84.70
2018-08-30T03:42:07.465Z,84.70
2018-08-30T03:42:27.314Z,84.61
2018-08-30T03:42:47.664Z,84.94
2018-08-30T03:43:08.197Z,84.73
2018-08-30T03:43:28.045Z,84.72
2018-08-30T03:43:48.702Z,84.65
2018-08-30T03:44:08.567Z,84.61
2018-08-30T03:44:28.968Z,84.62
2018-08-30T03:44:49.661Z,84.55
2018-08-30T03:45:09.771Z,84.68
2018-08-30T03:45:29.630Z,84.68
2018-08-30T03:45:50.343Z,84.63
2018-08-30T03:46:10.202Z,84.58
2018-08-30T03:46:30.607Z,84.59
2018-08-30T03:46:51.293Z,84.50
2018-08-30T03:47:11.123Z,84.22
2018-08-30T03:47:31.514Z,84.35
2018-08-30T03:47:52.362Z,84.43
2018-08-30T03:48:12.219Z,84.49
2018-08-30T03:48:32.585Z,84.57
2018-08-30T03:48:53.230Z,84.36
2018-08-30T03:49:13.116Z,84.33
2018-08-30T03:49:33.810Z,84.18
2018-08-30T03:49:53.984Z,84.26
2018-08-30T03:50:14.018Z,84.23
2018-08-30T03:50:34.275Z,84.35
2018-08-30T03:50:54.442Z,84.40
2018-08-30T03:51:14.305Z,84.35
2018-08-30T03:51:35.038Z,84.34
2018-08-30T03:51:54.895Z,84.29
2018-08-30T03:52:15.253Z,84.22
2018-08-30T03:52:35.975Z,84.17
2018-08-30T03:52:55.827Z,84.17
2018-08-30T03:53:16.195Z,84.14
2018-08-30T03:53:36.929Z,84.12
2018-08-30T03:53:56.792Z,84.29
2018-08-30T03:54:17.246Z,84.21
2018-08-30T03:54:37.886Z,84.28
2018-08-30T03:54:57.753Z,84.20
2018-08-30T03:55:18.366Z,84.09
2018-08-30T03:55:38.868Z,84.18
2018-08-30T03:55:58.797Z,84.26
2018-08-30T03:56:19.527Z,84.09
2018-08-30T03:56:39.488Z,84.12
2018-08-30T03:56:59.924Z,84.07
2018-08-30T03:57:20.682Z,84.01
2018-08-30T03:57:40.505Z,84.15
2018-08-30T03:58:00.866Z,84.08
2018-08-30T03:58:21.328Z,84.07
2018-08-30T03:58:41.680Z,84.02
2018-08-30T03:59:02.369Z,84.13
2018-08-30T03:59:22.544Z,84.12
2018-08-30T03:59:42.401Z,84.07
2018-08-30T04:00:03.044Z,84.11
2018-08-30T04:00:23.184Z,83.97
2018-08-30T04:00:43.047Z,83.79
2018-08-30T04:01:03.734Z,83.83
2018-08-30T04:01:23.892Z,83.83
2018-08-30T04:01:43.744Z,83.90
2018-08-30T04:02:04.484Z,83.76
2018-08-30T04:02:24.596Z,83.83
2018-08-30T04:02:44.442Z,83.80
2018-08-30T04:03:05.159Z,83.74
2018-08-30T04:03:25.009Z,83.74
2018-08-30T04:03:45.362Z,83.68
2018-08-30T04:04:06.107Z,83.70
2018-08-30T04:04:26.040Z,83.65
2018-08-30T04:04:46.318Z,83.73
2018-08-30T04:05:06.991Z,83.75
2018-08-30T04:05:26.850Z,83.70
2018-08-30T04:05:47.201Z,83.77
2018-08-30T04:06:07.802Z,83.60
2018-08-30T04:06:27.657Z,83.63
2018-08-30T04:06:48.126Z,83.58
2018-08-30T04:07:08.492Z,83.54
2018-08-30T04:07:28.848Z,83.54
2018-08-30T04:07:49.596Z,83.58
2018-08-30T04:08:09.563Z,83.58
2018-08-30T04:08:29.923Z,83.72
2018-08-30T04:08:50.636Z,83.84
2018-08-30T04:09:10.909Z,83.67
2018-08-30T04:09:30.762Z,83.60
2018-08-30T04:09:51.484Z,83.64
2018-08-30T04:10:11.539Z,83.71
2018-08-30T04:10:31.443Z,83.71
2018-08-30T04:10:52.127Z,83.67
2018-08-30T04:11:12.028Z,83.63
2018-08-30T04:11:32.388Z,83.59
2018-08-30T04:11:53.022Z,83.57
2018-08-30T04:12:12.875Z,83.62
2018-08-30T04:12:33.421Z,83.61
2018-08-30T04:12:53.583Z,83.64
2018-08-30T04:13:13.513Z,83.69
2018-08-30T04:13:34.229Z,83.80
2018-08-30T04:13:54.300Z,83.47
2018-08-30T04:14:14.157Z,83.33
2018-08-30T04:14:34.860Z,83.42
2018-08-30T04:14:54.714Z,83.49
2018-08-30T04:15:15.388Z,83.42
2018-08-30T04:15:35.572Z,83.44
2018-08-30T04:15:55.424Z,83.42
2018-08-30T04:16:15.819Z,83.33
2018-08-30T04:16:36.495Z,83.41
2018-08-30T04:16:56.395Z,83.39
2018-08-30T04:17:16.897Z,83.36
2018-08-30T04:17:37.104Z,83.42
2018-08-30T04:17:56.961Z,83.39
2018-08-30T04:18:17.324Z,83.50
2018-08-30T04:18:37.969Z,83.48
2018-08-30T04:18:57.881Z,83.46
2018-08-30T04:19:18.459Z,83.52
2018-08-30T04:19:38.606Z,83.50
2018-08-30T04:19:58.478Z,83.60
2018-08-30T04:20:19.205Z,83.55
2018-08-30T04:20:39.324Z,83.56
2018-08-30T04:21:19.544Z,83.56
2018-08-30T04:21:39.397Z,83.77
2018-08-30T04:21:59.799Z,83.83
2018-08-30T04:22:20.467Z,83.87
2018-08-30T04:22:40.605Z,83.81